Nearby METAR Reports

   
KFPR - Fort Pierce, FL
Updated: Jun 26 2017 2:53 pm
Clear  
Clear  
   Wind: ESE 13.8 mph
Wind: ESE 13.8 mph
Temperature: 91.4°F
Heat Index: 102.2°F
Dew Point: 75.2°F
Humidity: 59%
Barometer: 30 inHg
Clouds: Clear
Visibility: 10 mi
Cloud details: Clear
KFPR 261853Z 12012KT 10SM CLR 33/24 A3002 RMK AO2 SLP165 T03280239
KSUA - Stuart, FL
Updated: Jun 26 2017 2:50 pm
Partly Cloudy  
Partly Cloudy  
   Wind: ESE 11.5 mph
Wind: ESE 11.5 mph
Temperature: 93.2°F
Heat Index: 105.8°F
Dew Point: 75.2°F
Humidity: 56%
Barometer: 30 inHg
Clouds: Partly Cloudy
Visibility: 7 mi
Cloud details: Partly Cloudy 914 m
KSUA 261850Z 11010KT 7SM SCT030 34/24 A3004
KOBE - Okeechobee, FL
Updated: Jun 24 2017 2:00 pm
NOT Current
Clear  
Clear  
   Wind: SSE 9.2 mph
Wind: SSE 9.2 mph
Temperature: 89.6°F
Heat Index: 96.8°F
Dew Point: 71.6°F
Humidity: 55%
Barometer: 30.1 inHg
Clouds: Clear
Visibility: 10 mi
Cloud details: Clear
KOBE 241800Z AUTO 15008KT 10SM CLR 32/22 A3010 RMK AO2

Script developed by  Saratoga-weather.org Adapted for the template by  Weerstation Leuven

You find our weather info also at:

WeatherCloud

Weather Underground

Southeastern Weather Network

Citizen Weather Observer Program (CWOP)

HAMweather, WeatherForYou, PWS Weather

Anything Weather